createdAt,value
2019-01-26T00:00:18.775Z,13.17
2019-01-26T00:02:48.428Z,14.00
2019-01-26T00:05:17.995Z,13.67
2019-01-26T00:07:47.581Z,11.83
2019-01-26T00:10:17.159Z,12.43
2019-01-26T00:12:46.742Z,12.53
2019-01-26T00:15:16.321Z,13.30
2019-01-26T00:17:45.880Z,13.67
2019-01-26T00:20:15.447Z,15.50
2019-01-26T00:22:45.033Z,14.23
2019-01-26T00:25:14.593Z,13.13
2019-01-26T00:27:44.250Z,12.50
2019-01-26T00:30:14.445Z,11.30
2019-01-26T00:32:44.069Z,11.27
2019-01-26T00:35:13.637Z,11.20
2019-01-26T00:37:43.213Z,10.00
2019-01-26T00:40:12.768Z,9.03
2019-01-26T00:42:42.399Z,11.17
2019-01-26T00:45:12.191Z,9.20
2019-01-26T00:47:41.811Z,8.43
2019-01-26T00:50:11.393Z,9.30
2019-01-26T00:52:40.965Z,13.93
2019-01-26T00:55:10.641Z,11.50
2019-01-26T00:57:40.214Z,8.20
2019-01-26T01:00:12.188Z,9.50
2019-01-26T01:02:41.783Z,8.60
2019-01-26T01:05:11.338Z,9.03
2019-01-26T01:07:40.927Z,8.60
2019-01-26T01:10:11.818Z,10.30
2019-01-26T01:12:41.457Z,8.97
2019-01-26T01:15:12.053Z,10.20
2019-01-26T01:17:41.669Z,7.53
2019-01-26T01:20:11.235Z,8.07
2019-01-26T01:22:40.782Z,7.93
2019-01-26T01:25:10.461Z,8.80
2019-01-26T01:27:39.991Z,7.20
2019-01-26T01:30:12.244Z,7.17
2019-01-26T01:32:41.785Z,7.23
2019-01-26T01:35:11.433Z,6.67
2019-01-26T01:37:41.031Z,6.97
2019-01-26T01:40:10.678Z,6.50
2019-01-26T01:42:40.241Z,6.93
2019-01-26T01:45:11.633Z,8.40
2019-01-26T01:47:41.224Z,12.23
2019-01-26T01:50:10.936Z,7.20
2019-01-26T01:52:40.499Z,7.70
2019-01-26T01:55:10.339Z,8.27
2019-01-26T01:57:39.847Z,7.70
2019-01-26T02:00:12.860Z,10.53
2019-01-26T02:02:42.396Z,7.57
2019-01-26T02:05:11.925Z,6.97
2019-01-26T02:07:41.437Z,8.20
2019-01-26T02:10:12.430Z,8.30
2019-01-26T02:12:42.087Z,9.53
2019-01-26T02:15:11.897Z,8.30
2019-01-26T02:17:41.497Z,8.20
2019-01-26T02:20:13.386Z,7.67
2019-01-26T02:22:42.967Z,7.43
2019-01-26T02:25:12.575Z,7.83
2019-01-26T02:27:42.187Z,8.07
2019-01-26T02:30:13.912Z,7.53
2019-01-26T02:32:43.427Z,6.60
2019-01-26T02:35:13.059Z,7.33
2019-01-26T02:37:42.607Z,7.10
2019-01-26T02:40:12.675Z,6.80
2019-01-26T02:42:42.208Z,6.87
2019-01-26T02:45:12.876Z,7.03
2019-01-26T02:47:42.410Z,7.37
2019-01-26T02:50:14.086Z,8.20
2019-01-26T02:52:43.702Z,5.83
2019-01-26T02:55:13.395Z,6.70
2019-01-26T02:57:42.945Z,6.30
2019-01-26T03:00:18.590Z,7.10
2019-01-26T03:02:48.120Z,6.70
2019-01-26T03:05:17.833Z,7.10
2019-01-26T03:07:47.509Z,7.00
2019-01-26T03:10:18.432Z,6.90
2019-01-26T03:12:48.052Z,6.60
2019-01-26T03:15:19.478Z,6.60
2019-01-26T03:17:49.112Z,7.33
2019-01-26T03:20:18.766Z,6.97
2019-01-26T03:22:48.337Z,7.17
2019-01-26T03:25:17.869Z,6.70
2019-01-26T03:27:47.422Z,7.43
2019-01-26T03:30:19.192Z,6.87
2019-01-26T03:32:48.759Z,7.63
2019-01-26T03:35:18.325Z,5.90
2019-01-26T03:37:47.894Z,6.00
2019-01-26T03:40:20.193Z,5.93
2019-01-26T03:42:49.793Z,7.87
2019-01-26T03:45:19.333Z,6.93
2019-01-26T03:47:48.880Z,7.50
2019-01-26T03:50:18.450Z,7.17
2019-01-26T03:52:47.997Z,9.37
2019-01-26T03:55:18.795Z,7.67
2019-01-26T03:57:48.346Z,8.30
2019-01-26T04:00:22.801Z,8.70
2019-01-26T04:02:52.336Z,9.17
2019-01-26T04:05:21.892Z,7.83
2019-01-26T04:07:51.425Z,9.20
2019-01-26T04:10:21.001Z,10.40
2019-01-26T04:12:50.584Z,6.50
2019-01-26T04:15:20.265Z,6.30
2019-01-26T04:17:49.818Z,15.37
2019-01-26T04:20:20.729Z,18.60
2019-01-26T04:22:50.287Z,17.03
2019-01-26T04:25:20.020Z,20.27
2019-01-26T04:27:49.572Z,6.87
2019-01-26T04:30:20.807Z,7.70
2019-01-26T04:32:50.385Z,7.27
2019-01-26T04:35:19.990Z,16.33
2019-01-26T04:37:49.556Z,7.30
2019-01-26T04:40:19.860Z,9.10
2019-01-26T04:42:49.511Z,8.80
2019-01-26T04:45:23.739Z,6.90
2019-01-26T04:47:53.310Z,6.83
2019-01-26T04:50:22.869Z,7.27
2019-01-26T04:52:52.383Z,6.13
2019-01-26T04:55:22.654Z,10.47
2019-01-26T04:57:52.279Z,10.40
2019-01-26T05:00:25.126Z,7.03
2019-01-26T05:02:54.677Z,6.50
2019-01-26T05:05:27.595Z,8.60
2019-01-26T05:07:57.155Z,9.03
2019-01-26T05:10:26.721Z,8.87
2019-01-26T05:12:56.264Z,9.60
2019-01-26T05:15:25.850Z,11.17
2019-01-26T05:17:55.974Z,14.60
2019-01-26T05:20:26.634Z,13.37
2019-01-26T05:22:56.198Z,10.37
2019-01-26T05:25:25.738Z,11.03
2019-01-26T05:27:55.262Z,8.93
2019-01-26T05:30:29.508Z,11.43
2019-01-26T05:32:59.081Z,10.27
2019-01-26T05:35:28.619Z,9.50
2019-01-26T05:37:58.170Z,9.00
2019-01-26T05:40:28.262Z,16.47
2019-01-26T05:42:57.888Z,13.23
2019-01-26T05:45:27.410Z,16.60
2019-01-26T05:47:56.991Z,13.00
2019-01-26T05:50:27.391Z,9.30
2019-01-26T05:52:56.924Z,8.30
2019-01-26T05:55:26.513Z,9.30
2019-01-26T05:57:56.081Z,9.03
2019-01-26T06:00:33.890Z,10.57
2019-01-26T06:03:03.513Z,7.60
2019-01-26T06:05:33.136Z,7.80
2019-01-26T06:08:02.782Z,9.27
2019-01-26T06:10:32.325Z,10.53
2019-01-26T06:13:01.974Z,9.90
2019-01-26T06:15:31.535Z,10.50
2019-01-26T06:18:01.098Z,10.67
2019-01-26T06:20:32.191Z,9.20
2019-01-26T06:23:01.875Z,9.10
2019-01-26T06:25:31.436Z,11.37
2019-01-26T06:28:01.033Z,9.93
2019-01-26T06:30:31.421Z,11.57
2019-01-26T06:33:01.016Z,11.40
2019-01-26T06:35:30.621Z,10.33
2019-01-26T06:38:00.174Z,8.27
2019-01-26T06:40:29.731Z,9.13
2019-01-26T06:42:59.284Z,9.93
2019-01-26T06:45:28.890Z,9.60
2019-01-26T06:48:02.227Z,11.20
2019-01-26T06:50:31.855Z,11.20
2019-01-26T06:53:01.423Z,12.17
2019-01-26T06:55:31.356Z,9.73
2019-01-26T06:58:01.082Z,11.67
2019-01-26T07:00:33.240Z,11.20
2019-01-26T07:03:02.879Z,11.80
2019-01-26T07:05:55.063Z,13.03
2019-01-26T07:08:24.907Z,14.60
2019-01-26T07:10:54.969Z,18.93
2019-01-26T07:13:25.144Z,14.43
2019-01-26T07:15:57.014Z,16.90
2019-01-26T07:18:26.708Z,26.90
2019-01-26T07:20:56.297Z,15.50
2019-01-26T07:23:26.307Z,14.67
2019-01-26T07:25:55.858Z,11.20
2019-01-26T07:28:25.393Z,12.27
2019-01-26T07:30:54.981Z,10.10
2019-01-26T07:33:24.623Z,13.33
2019-01-26T07:35:54.159Z,15.13
2019-01-26T07:38:23.742Z,11.40
2019-01-26T07:40:53.319Z,10.30
2019-01-26T07:43:22.900Z,11.80
2019-01-26T07:45:52.982Z,11.73
2019-01-26T07:48:22.538Z,11.33
2019-01-26T07:50:52.085Z,11.77
2019-01-26T07:53:21.632Z,8.40
2019-01-26T07:55:51.330Z,12.30
2019-01-26T07:58:20.925Z,15.17
2019-01-26T08:00:50.476Z,9.20
2019-01-26T08:03:20.037Z,13.00
2019-01-26T08:05:49.606Z,10.93
2019-01-26T08:08:19.138Z,9.17
2019-01-26T08:10:48.690Z,10.03
2019-01-26T08:13:18.249Z,10.30
2019-01-26T08:15:47.798Z,10.77
2019-01-26T08:18:23.870Z,10.93
2019-01-26T08:20:48.704Z,9.53
2019-01-26T08:23:18.244Z,9.47
2019-01-26T08:25:47.816Z,9.03
2019-01-26T08:28:17.409Z,10.37
2019-01-26T08:30:46.949Z,9.70
2019-01-26T08:33:19.017Z,13.27
2019-01-26T08:35:48.541Z,17.90
2019-01-26T08:38:18.090Z,20.93
2019-01-26T08:40:47.638Z,15.60
2019-01-26T08:43:17.291Z,14.53
2019-01-26T08:45:46.850Z,12.40
2019-01-26T08:48:16.467Z,21.27
2019-01-26T08:50:46.154Z,15.60
2019-01-26T08:53:15.805Z,15.47
2019-01-26T08:55:45.337Z,15.67
2019-01-26T08:58:15.114Z,18.60
2019-01-26T09:00:44.681Z,24.43
2019-01-26T09:03:31.182Z,14.03
2019-01-26T09:06:23.117Z,20.33
2019-01-26T09:08:52.789Z,15.37
2019-01-26T09:11:22.331Z,18.97
2019-01-26T09:13:51.992Z,17.03
2019-01-26T09:16:22.303Z,16.53
2019-01-26T09:18:51.893Z,16.70
2019-01-26T09:21:21.482Z,17.80
2019-01-26T09:23:51.013Z,17.57
2019-01-26T09:26:20.594Z,17.50
2019-01-26T09:28:50.150Z,19.80
2019-01-26T09:31:19.703Z,15.40
2019-01-26T09:33:49.313Z,21.40
2019-01-26T09:36:19.379Z,19.40
2019-01-26T09:38:48.918Z,16.33
2019-01-26T09:41:18.571Z,13.57
2019-01-26T09:43:48.465Z,10.13
2019-01-26T09:46:19.002Z,11.90
2019-01-26T09:48:48.615Z,10.93
2019-01-26T09:51:18.320Z,13.97
2019-01-26T09:53:47.921Z,14.20
2019-01-26T09:56:17.654Z,11.53
2019-01-26T09:58:47.652Z,11.30
2019-01-26T10:01:17.293Z,8.00
2019-01-26T10:03:47.018Z,10.50
2019-01-26T10:06:17.223Z,12.90
2019-01-26T10:08:48.026Z,13.37
2019-01-26T10:11:17.786Z,14.50
2019-01-26T10:13:47.563Z,17.27
2019-01-26T10:16:17.196Z,16.73
2019-01-26T10:18:53.318Z,14.17
2019-01-26T10:21:18.105Z,18.53
2019-01-26T10:23:47.755Z,19.20
2019-01-26T10:26:17.368Z,16.13
2019-01-26T10:28:47.027Z,36.07
2019-01-26T10:31:16.590Z,28.07
2019-01-26T10:33:46.128Z,15.57
2019-01-26T10:36:21.964Z,23.60
2019-01-26T10:39:10.038Z,17.07
2019-01-26T10:41:54.972Z,15.77
2019-01-26T10:44:27.680Z,14.33
2019-01-26T10:46:57.248Z,16.60
2019-01-26T10:49:27.150Z,11.60
2019-01-26T10:51:56.811Z,11.07
2019-01-26T10:54:26.760Z,14.83
2019-01-26T10:56:56.306Z,12.13
2019-01-26T10:59:26.053Z,20.00
2019-01-26T11:01:55.767Z,16.57
2019-01-26T11:04:25.310Z,17.07
2019-01-26T11:06:54.862Z,21.60
2019-01-26T11:09:24.481Z,22.20
2019-01-26T11:11:54.100Z,25.53
2019-01-26T11:14:23.690Z,19.73
2019-01-26T11:16:53.258Z,17.63
2019-01-26T11:19:22.948Z,19.43
2019-01-26T11:21:52.487Z,25.20
2019-01-26T11:24:22.350Z,14.03
2019-01-26T11:26:51.899Z,19.97
2019-01-26T11:29:21.493Z,18.67
2019-01-26T11:31:51.026Z,16.73
2019-01-26T11:34:20.655Z,15.90
2019-01-26T11:36:50.294Z,20.07
2019-01-26T11:39:19.893Z,23.00
2019-01-26T11:41:49.526Z,20.00
2019-01-26T11:44:19.088Z,20.77
2019-01-26T11:47:00.805Z,17.20
2019-01-26T11:49:30.451Z,20.70
2019-01-26T11:52:10.545Z,22.57
2019-01-26T11:55:02.990Z,19.50
2019-01-26T11:57:35.145Z,16.67
2019-01-26T12:00:46.815Z,29.50
2019-01-26T12:03:44.118Z,24.23
2019-01-26T12:06:20.017Z,19.77
2019-01-26T12:08:49.593Z,28.53
2019-01-26T12:11:19.253Z,20.90
2019-01-26T12:13:48.834Z,20.70
2019-01-26T12:16:18.374Z,22.77
2019-01-26T12:18:47.921Z,24.20
2019-01-26T12:21:17.474Z,23.13
2019-01-26T12:23:47.003Z,22.07
2019-01-26T12:26:16.622Z,18.13
2019-01-26T12:28:46.172Z,21.73
2019-01-26T12:31:16.094Z,23.53
2019-01-26T12:33:45.739Z,19.70
2019-01-26T12:36:15.934Z,16.00
2019-01-26T12:38:45.676Z,13.33
2019-01-26T12:41:15.221Z,15.83
2019-01-26T12:43:44.750Z,15.90
2019-01-26T12:46:14.308Z,16.00
2019-01-26T12:48:43.879Z,40.13
2019-01-26T12:51:13.453Z,21.60
2019-01-26T12:53:42.993Z,23.53
2019-01-26T12:56:12.602Z,26.00
2019-01-26T12:58:42.141Z,21.73
2019-01-26T13:01:11.981Z,26.87
2019-01-26T13:03:41.553Z,13.07
2019-01-26T13:06:11.157Z,38.77
2019-01-26T13:08:40.855Z,22.60
2019-01-26T13:11:21.357Z,19.63
2019-01-26T13:13:51.999Z,26.60
2019-01-26T13:16:21.569Z,22.23
2019-01-26T13:18:51.404Z,16.93
2019-01-26T13:21:20.937Z,19.90
2019-01-26T13:23:50.494Z,21.27
2019-01-26T13:26:20.042Z,21.47
2019-01-26T13:28:49.596Z,18.47
2019-01-26T13:31:19.111Z,22.40
2019-01-26T13:33:48.678Z,26.17
2019-01-26T13:36:18.246Z,15.87
2019-01-26T13:38:47.765Z,12.83
2019-01-26T13:41:17.383Z,15.80
2019-01-26T13:43:46.916Z,29.37
2019-01-26T13:46:16.462Z,23.60
2019-01-26T13:48:46.018Z,31.83
2019-01-26T13:51:15.566Z,21.30
2019-01-26T13:53:45.100Z,27.97
2019-01-26T13:56:14.653Z,20.67
2019-01-26T13:58:44.279Z,21.00
2019-01-26T14:01:13.826Z,15.53
2019-01-26T14:03:43.365Z,19.90
2019-01-26T14:06:12.915Z,21.50
2019-01-26T14:08:42.502Z,20.30
2019-01-26T14:11:12.031Z,22.20
2019-01-26T14:13:41.623Z,25.20
2019-01-26T14:16:11.161Z,25.03
2019-01-26T14:18:40.748Z,19.67
2019-01-26T14:21:10.445Z,23.70
2019-01-26T14:23:39.975Z,15.87
2019-01-26T14:26:09.518Z,22.70
2019-01-26T14:28:39.180Z,20.27
2019-01-26T14:31:09.448Z,21.40
2019-01-26T14:33:39.041Z,24.43
2019-01-26T14:36:08.722Z,32.50
2019-01-26T14:38:38.282Z,33.20
2019-01-26T14:41:07.810Z,26.40
2019-01-26T14:43:37.454Z,27.53
2019-01-26T14:46:07.018Z,31.03
2019-01-26T14:48:36.664Z,28.80
2019-01-26T14:51:06.284Z,29.33
2019-01-26T14:53:35.970Z,40.50
2019-01-26T14:56:05.582Z,29.60
2019-01-26T14:58:35.150Z,30.97
2019-01-26T15:01:04.841Z,42.97
2019-01-26T15:03:34.485Z,33.20
2019-01-26T15:06:04.397Z,30.17
2019-01-26T15:08:34.496Z,35.17
2019-01-26T15:11:04.036Z,39.00
2019-01-26T15:13:33.582Z,44.57
2019-01-26T15:16:03.180Z,43.60
2019-01-26T15:18:32.819Z,40.53
2019-01-26T15:21:02.359Z,37.50
2019-01-26T15:23:31.880Z,36.47
2019-01-26T15:26:01.532Z,33.50
2019-01-26T15:28:31.082Z,36.93
2019-01-26T15:31:00.618Z,35.27
2019-01-26T15:33:30.148Z,49.00
2019-01-26T15:35:59.698Z,68.90
2019-01-26T15:38:29.325Z,42.63
2019-01-26T15:40:58.905Z,39.40
2019-01-26T15:43:28.883Z,37.77
2019-01-26T15:45:58.506Z,35.30
2019-01-26T15:48:28.037Z,43.20
2019-01-26T15:50:57.599Z,36.50
2019-01-26T15:53:27.131Z,41.67
2019-01-26T15:55:56.697Z,41.10
2019-01-26T15:58:26.269Z,30.63
2019-01-26T16:00:55.778Z,33.00
2019-01-26T16:03:25.320Z,34.97
2019-01-26T16:05:54.864Z,30.77
2019-01-26T16:08:24.436Z,31.60
2019-01-26T16:10:53.991Z,30.27
2019-01-26T16:13:23.613Z,33.57
2019-01-26T16:15:54.171Z,28.83
2019-01-26T16:18:23.765Z,29.80
2019-01-26T16:20:53.443Z,28.97
2019-01-26T16:23:23.074Z,28.77
2019-01-26T16:25:52.602Z,38.40
2019-01-26T16:28:22.304Z,32.20
2019-01-26T16:30:51.863Z,31.90
2019-01-26T16:33:21.398Z,35.97
2019-01-26T16:35:50.930Z,33.70
2019-01-26T16:38:20.577Z,37.40
2019-01-26T16:40:50.243Z,33.80
2019-01-26T16:43:19.902Z,34.50
2019-01-26T16:45:49.531Z,32.53
2019-01-26T16:48:19.142Z,29.53
2019-01-26T16:50:48.821Z,32.53
2019-01-26T16:53:18.373Z,30.10
2019-01-26T16:55:47.935Z,32.20
2019-01-26T16:58:17.774Z,30.37
2019-01-26T17:00:49.260Z,33.30
2019-01-26T17:03:18.813Z,31.27
2019-01-26T17:05:48.341Z,35.40
2019-01-26T17:08:17.930Z,37.27
2019-01-26T17:10:47.552Z,39.83
2019-01-26T17:13:17.098Z,35.47
2019-01-26T17:15:46.658Z,37.90
2019-01-26T17:18:16.206Z,42.10
2019-01-26T17:20:46.085Z,39.07
2019-01-26T17:23:15.620Z,35.40
2019-01-26T17:25:45.178Z,38.50
2019-01-26T17:28:14.765Z,39.60
2019-01-26T17:30:44.822Z,43.57
2019-01-26T17:33:14.362Z,35.20
2019-01-26T17:35:43.963Z,37.00
2019-01-26T17:38:13.670Z,37.13
2019-01-26T17:40:43.356Z,44.70
2019-01-26T17:43:12.971Z,38.80
2019-01-26T17:45:42.603Z,40.30
2019-01-26T17:48:12.149Z,38.53
2019-01-26T17:50:42.487Z,39.93
2019-01-26T17:53:12.306Z,43.30
2019-01-26T17:55:41.860Z,37.40
2019-01-26T17:58:11.411Z,39.17
2019-01-26T18:00:57.722Z,34.70
2019-01-26T18:03:27.329Z,35.30
2019-01-26T18:05:56.905Z,43.43
2019-01-26T18:08:26.496Z,41.43
2019-01-26T18:10:56.251Z,38.87
2019-01-26T18:13:26.376Z,42.30
2019-01-26T18:15:56.251Z,41.37
2019-01-26T18:18:25.808Z,40.17
2019-01-26T18:20:55.354Z,49.67
2019-01-26T18:23:35.081Z,47.90
2019-01-26T18:26:05.552Z,53.03
2019-01-26T18:28:35.201Z,38.47
2019-01-26T18:31:04.745Z,57.47
2019-01-26T18:33:34.396Z,44.90
2019-01-26T18:36:03.955Z,41.90
2019-01-26T18:38:33.609Z,44.90
2019-01-26T18:41:03.267Z,43.30
2019-01-26T18:43:32.913Z,44.17
2019-01-26T18:46:02.445Z,42.87
2019-01-26T18:48:32.033Z,59.70
2019-01-26T18:51:01.662Z,42.63
2019-01-26T18:53:31.283Z,67.97
2019-01-26T18:56:01.385Z,60.70
2019-01-26T18:58:31.020Z,63.10
2019-01-26T19:01:00.579Z,51.17
2019-01-26T19:04:09.773Z,87.27
2019-01-26T19:06:39.388Z,61.70
2019-01-26T19:09:11.469Z,62.03
2019-01-26T19:11:41.007Z,78.53
2019-01-26T19:14:10.650Z,84.20
2019-01-26T19:16:40.417Z,75.37
2019-01-26T19:19:09.979Z,66.97
2019-01-26T19:21:39.580Z,48.63
2019-01-26T19:24:09.119Z,40.10
2019-01-26T19:26:38.662Z,44.47
2019-01-26T19:29:08.258Z,44.33
2019-01-26T19:31:37.882Z,37.87
2019-01-26T19:34:07.437Z,36.03
2019-01-26T19:36:39.775Z,33.60
2019-01-26T19:39:09.594Z,34.27
2019-01-26T19:41:39.191Z,33.80
2019-01-26T19:44:08.785Z,33.60
2019-01-26T19:46:42.037Z,35.60
2019-01-26T19:49:11.612Z,37.90
2019-01-26T19:51:41.156Z,40.03
2019-01-26T19:54:10.899Z,46.20
2019-01-26T19:56:40.513Z,43.03
2019-01-26T19:59:10.072Z,41.60
2019-01-26T20:01:39.760Z,43.27
2019-01-26T20:04:09.303Z,50.40
2019-01-26T20:06:38.859Z,53.80
2019-01-26T20:09:10.005Z,49.50
2019-01-26T20:11:39.714Z,55.07
2019-01-26T20:14:09.525Z,46.83
2019-01-26T20:16:39.107Z,37.83
2019-01-26T20:19:08.715Z,35.70
2019-01-26T20:21:38.341Z,31.10
2019-01-26T20:24:08.134Z,35.87
2019-01-26T20:26:37.971Z,33.77
2019-01-26T20:29:07.666Z,35.33
2019-01-26T20:31:38.146Z,29.10
2019-01-26T20:34:07.866Z,30.50
2019-01-26T20:36:37.480Z,31.90
2019-01-26T20:39:09.491Z,32.07
2019-01-26T20:41:39.372Z,32.70
2019-01-26T20:44:08.946Z,35.10
2019-01-26T20:46:38.726Z,36.27
2019-01-26T20:49:08.254Z,33.70
2019-01-26T20:51:37.892Z,31.93
2019-01-26T20:54:07.449Z,35.17
2019-01-26T20:56:37.246Z,33.47
2019-01-26T20:59:08.446Z,29.20
2019-01-26T21:01:38.144Z,25.50
2019-01-26T21:04:07.757Z,26.23
2019-01-26T21:06:37.484Z,28.47
2019-01-26T21:09:09.167Z,25.13
2019-01-26T21:11:38.765Z,22.20
2019-01-26T21:14:08.379Z,24.20
2019-01-26T21:16:38.000Z,27.03
2019-01-26T21:19:10.689Z,24.93
2019-01-26T21:21:40.372Z,25.27
2019-01-26T21:24:10.110Z,26.30
2019-01-26T21:26:39.699Z,27.73
2019-01-26T21:29:09.299Z,30.83
2019-01-26T21:31:39.367Z,31.13
2019-01-26T21:34:08.913Z,27.07
2019-01-26T21:36:38.492Z,28.53
2019-01-26T21:39:09.656Z,31.90
2019-01-26T21:41:39.254Z,27.67
2019-01-26T21:44:08.926Z,25.17
2019-01-26T21:46:41.606Z,22.97
2019-01-26T21:49:11.280Z,26.27
2019-01-26T21:51:40.914Z,27.57
2019-01-26T21:54:10.905Z,26.23
2019-01-26T21:56:40.465Z,29.47
2019-01-26T21:59:10.086Z,28.57
2019-01-26T22:01:39.705Z,27.50
2019-01-26T22:04:09.274Z,29.87
2019-01-26T22:06:41.523Z,32.27
2019-01-26T22:09:11.129Z,30.23
2019-01-26T22:11:40.742Z,27.57
2019-01-26T22:14:10.303Z,28.37
2019-01-26T22:16:39.859Z,28.20
2019-01-26T22:19:09.448Z,26.00
2019-01-26T22:21:45.994Z,27.13
2019-01-26T22:24:13.190Z,24.53
2019-01-26T22:26:42.747Z,24.87
2019-01-26T22:29:12.386Z,27.53
2019-01-26T22:31:42.246Z,27.73
2019-01-26T22:34:11.778Z,28.43
2019-01-26T22:36:41.339Z,27.93
2019-01-26T22:39:10.896Z,27.03
2019-01-26T22:41:40.480Z,28.13
2019-01-26T22:44:10.127Z,22.40
2019-01-26T22:46:39.765Z,27.37
2019-01-26T22:49:09.313Z,25.90
2019-01-26T22:51:39.009Z,27.07
2019-01-26T22:54:08.557Z,23.30
2019-01-26T22:56:38.160Z,22.67
2019-01-26T22:59:07.734Z,22.63
2019-01-26T23:01:39.898Z,24.47
2019-01-26T23:04:29.148Z,22.97
2019-01-26T23:07:24.099Z,23.50
2019-01-26T23:10:27.830Z,21.43
2019-01-26T23:13:09.645Z,19.57
2019-01-26T23:16:16.204Z,21.10
2019-01-26T23:18:56.190Z,20.77
2019-01-26T23:22:02.416Z,21.57
2019-01-26T23:25:11.765Z,24.30
2019-01-26T23:28:00.945Z,20.50
2019-01-26T23:31:05.834Z,17.77
2019-01-26T23:33:35.445Z,18.13
2019-01-26T23:36:05.062Z,18.13
2019-01-26T23:38:34.701Z,18.87
2019-01-26T23:41:04.192Z,20.37
2019-01-26T23:43:33.801Z,20.90
2019-01-26T23:46:03.336Z,19.50
2019-01-26T23:48:32.866Z,18.93
2019-01-26T23:51:02.418Z,18.00
2019-01-26T23:53:31.980Z,18.80
2019-01-26T23:56:01.601Z,18.03
2019-01-26T23:58:31.165Z,18.77
